Terminal Aerodrome Forecast
Issued by NWS

Current Version | Previous Version | Text Only | Print | Product List | Glossary On
Versions: 1 2 3 4 5 6 7 8 9 10 11 12
000
FTUS42 KMLB 271724
TAFSUA
TAF
KSUA 271724Z 2718/2818 10009KT P6SM VCTS BKN035CB BKN060
      TEMPO 2718/2720 VRB15G25KT 3SM TSRA BKN025CB
     FM280000 13002KT P6SM OVC250 PROB30 2815/2818 P6SM TS BKN050CB=

USA.gov is the U.S. government's official web portal to all federal, state and local government web resources and services.